createdAt,value
2019-06-07T15:37:21.782Z,20.20
2019-06-07T15:40:06.406Z,20.20
2019-06-07T16:24:00.269Z,20.40
2019-06-07T16:26:45.973Z,20.40
2019-06-07T17:19:35.870Z,19.40
2019-06-07T17:22:20.874Z,19.40
2019-06-07T18:26:18.093Z,17.50
2019-06-07T18:29:03.704Z,17.30
2019-06-07T19:40:48.033Z,16.20
2019-06-07T19:43:31.733Z,16.20
2019-06-07T19:52:07.551Z,15.80
2019-06-07T19:54:48.868Z,16.00
2019-06-07T19:57:27.458Z,16.10
2019-06-07T20:00:13.589Z,16.00
2019-06-07T20:02:49.069Z,16.00
2019-06-07T20:05:33.584Z,16.00
2019-06-07T20:08:11.502Z,16.00
2019-06-07T20:10:52.780Z,15.90
2019-06-07T20:13:34.195Z,16.00
2019-06-07T20:16:16.192Z,15.90
2019-06-07T20:18:58.140Z,15.90
2019-06-07T20:21:37.702Z,15.80
2019-06-07T20:24:27.170Z,15.80
2019-06-07T20:27:00.291Z,15.80
2019-06-07T20:29:39.024Z,15.80
2019-06-07T20:32:19.348Z,15.70
2019-06-07T20:34:59.666Z,15.60
2019-06-07T20:37:41.440Z,15.70
2019-06-07T20:40:24.647Z,15.80
2019-06-07T20:43:03.518Z,15.80
2019-06-07T20:45:49.746Z,15.60
2019-06-07T20:48:30.150Z,15.50
2019-06-07T20:51:08.709Z,15.70
2019-06-07T20:53:48.988Z,15.70
2019-06-07T20:56:30.264Z,15.80
2019-06-07T20:59:16.490Z,15.80
2019-06-07T21:01:56.989Z,15.70
2019-06-07T21:04:44.935Z,15.70
2019-06-07T21:07:24.091Z,16.00
2019-06-07T21:10:03.806Z,15.80
2019-06-07T21:12:45.505Z,15.80
2019-06-07T21:15:25.903Z,15.80
2019-06-07T21:18:16.179Z,15.70
2019-06-07T21:20:47.709Z,15.70
2019-06-07T21:23:28.915Z,15.60
2019-06-07T21:26:09.119Z,15.40
2019-06-07T21:28:49.381Z,15.30
2019-06-07T21:31:39.131Z,15.40
2019-06-07T21:34:20.238Z,15.70
2019-06-07T21:36:59.366Z,15.50
2019-06-07T21:39:42.459Z,15.50
2019-06-07T21:42:23.055Z,15.50
2019-06-07T21:45:07.295Z,15.60
2019-06-07T21:47:48.193Z,15.60
2019-06-07T21:50:28.563Z,15.40
2019-06-07T21:53:06.872Z,15.60
2019-06-07T21:55:48.273Z,15.70
2019-06-07T21:58:29.679Z,15.50
2019-06-07T22:01:40.274Z,15.60
2019-06-07T22:04:18.889Z,15.70
2019-06-07T22:06:58.298Z,15.70
2019-06-07T22:09:39.902Z,15.80
2019-06-07T22:12:20.202Z,15.70
2019-06-07T22:15:00.514Z,15.80
2019-06-07T22:17:41.916Z,15.80
2019-06-07T22:20:20.245Z,15.80
2019-06-07T22:23:00.627Z,15.80
2019-06-07T22:25:40.829Z,15.80
2019-06-07T22:28:22.536Z,15.80
2019-06-07T22:31:03.056Z,15.80
2019-06-07T22:33:43.441Z,15.70
2019-06-07T22:36:23.847Z,15.70
2019-06-07T22:39:07.409Z,15.70
2019-06-07T22:41:48.957Z,15.70
2019-06-07T22:44:29.062Z,15.70
2019-06-07T22:47:09.898Z,15.60
2019-06-07T22:49:49.828Z,15.60
2019-06-07T22:52:30.378Z,15.60
2019-06-07T22:55:12.185Z,15.70
2019-06-07T22:57:59.007Z,15.60
2019-06-07T23:00:39.784Z,15.60
2019-06-07T23:03:20.595Z,15.60
2019-06-07T23:06:01.201Z,15.60
2019-06-07T23:08:39.621Z,15.60
2019-06-07T23:11:19.915Z,15.50
2019-06-07T23:14:00.117Z,15.50
2019-06-07T23:16:54.263Z,15.50
2019-06-07T23:19:22.813Z,15.60
2019-06-07T23:22:03.330Z,15.70
2019-06-07T23:24:43.136Z,15.70
2019-06-07T23:27:23.442Z,15.60
2019-06-07T23:30:08.445Z,15.60
2019-06-07T23:32:47.476Z,15.60
2019-06-07T23:35:27.759Z,15.60
2019-06-07T23:38:08.260Z,15.60
2019-06-07T23:40:49.465Z,15.60
2019-06-07T23:43:29.769Z,15.60
2019-06-07T23:46:09.076Z,15.60
2019-06-07T23:48:59.181Z,15.60
2019-06-07T23:51:39.286Z,15.50
2019-06-07T23:54:19.892Z,15.60
2019-06-07T23:57:00.395Z,15.60
2019-06-07T23:59:39.792Z,15.70
